Time;durP1;ratioP1;P1;durP2;ratioP2;P2;SDS_P1;SDS_P2;PMS_P1;PMS_P2;Temp;Humidity;BMP_temperature;BMP_pressure;BME280_temperature;BME280_humidity;BME280_pressure;Samples;Min_cycle;Max_cycle;Signal;HPM_P1;HPM_P2
2024/02/10 00:01:40;;;;;;;11.43;8.30;;;;;;;10.20;83.68;94134.94;5055198;28;20075;-78
2024/02/10 00:04:08;;;;;;;11.02;7.72;;;;;;;10.22;82.97;94136.25;5055074;28;20053;-78
2024/02/10 00:06:36;;;;;;;11.82;7.65;;;;;;;10.23;82.21;94137.84;5055335;28;20424;-78
2024/02/10 00:09:06;;;;;;;14.48;8.57;;;;;;;10.23;81.74;94135.25;5055104;28;20052;-77
2024/02/10 00:11:35;;;;;;;13.43;7.75;;;;;;;10.25;82.15;94130.56;5058655;28;20108;-77
2024/02/10 00:14:02;;;;;;;12.73;8.15;;;;;;;10.26;81.64;94132.16;5077393;28;20049;-77
2024/02/10 00:16:30;;;;;;;12.57;7.82;;;;;;;10.26;81.33;94126.16;5076735;28;20041;-78
2024/02/10 00:18:57;;;;;;;10.73;7.05;;;;;;;10.26;81.14;94116.53;5068453;28;20428;-78
2024/02/10 00:21:25;;;;;;;12.77;8.48;;;;;;;10.24;80.86;94115.97;5057070;28;20049;-78
2024/02/10 00:23:54;;;;;;;16.38;8.27;;;;;;;10.22;80.82;94110.22;5056302;28;20411;-78
2024/02/10 00:26:22;;;;;;;13.13;8.30;;;;;;;10.21;80.75;94113.84;5056180;28;20140;-77
2024/02/10 00:28:50;;;;;;;9.88;7.20;;;;;;;10.22;80.90;94115.41;5055457;28;20048;-76
2024/02/10 00:31:18;;;;;;;11.88;7.53;;;;;;;10.21;80.72;94111.25;5055213;28;20083;-77
2024/02/10 00:33:46;;;;;;;13.73;8.35;;;;;;;10.22;80.76;94115.41;5054874;28;20489;-78
2024/02/10 00:36:14;;;;;;;17.65;8.48;;;;;;;10.21;80.71;94107.84;5055638;28;20052;-78
2024/02/10 00:38:42;;;;;;;10.45;7.53;;;;;;;10.20;80.50;94104.44;5054885;28;20048;-77
2024/02/10 00:41:10;;;;;;;19.17;7.82;;;;;;;10.20;80.67;94112.25;5054900;28;20575;-78
2024/02/10 00:43:43;;;;;;;13.35;7.97;;;;;;;10.20;80.35;94104.44;5054881;28;20518;-78
2024/02/10 00:46:11;;;;;;;;;;;;;;;10.22;80.44;94107.59;5055636;28;20067;-77
2024/02/10 00:48:38;;;;;;;13.23;8.32;;;;;;;10.19;80.13;94108.09;5054921;28;20295;-78
2024/02/10 00:51:06;;;;;;;11.55;8.13;;;;;;;10.19;80.36;94109.91;5054535;28;20325;-78
2024/02/10 00:53:38;;;;;;;12.38;7.85;;;;;;;10.19;80.33;94104.69;5054297;28;20512;-78
2024/02/10 00:56:08;;;;;;;15.98;7.47;;;;;;;10.19;80.03;94095.06;5054693;28;20053;-78
2024/02/10 00:58:41;;;;;;;18.30;8.55;;;;;;;10.17;79.93;94104.94;5054547;28;20136;-77
2024/02/10 01:01:12;;;;;;;18.25;8.35;;;;;;;10.18;80.17;94106.50;5054313;28;20053;-77
2024/02/10 01:03:45;;;;;;;15.98;7.90;;;;;;;10.16;80.14;94111.16;5053814;28;20432;-77
2024/02/10 01:06:15;;;;;;;13.73;8.82;;;;;;;10.16;79.90;94111.16;5054341;28;20048;-78
2024/02/10 01:08:46;;;;;;;13.55;8.15;;;;;;;10.15;80.01;94114.81;5054462;28;20508;-78
2024/02/10 01:11:14;;;;;;;12.77;7.82;;;;;;;10.15;79.72;94117.41;5054066;28;20064;-77
2024/02/10 01:13:43;;;;;;;9.60;7.38;;;;;;;10.17;81.51;94120.56;5053645;28;20427;-78
2024/02/10 01:16:14;;;;;;;13.98;8.38;;;;;;;10.21;81.47;94133.88;5054078;28;20045;-77
2024/02/10 01:18:43;;;;;;;11.57;7.20;;;;;;;10.25;81.81;94148.81;5053880;28;20500;-78
2024/02/10 01:21:11;;;;;;;16.92;7.03;;;;;;;10.27;80.99;94146.75;5053831;28;20098;-78
2024/02/10 01:23:42;;;;;;;15.18;7.38;;;;;;;10.28;80.75;94161.38;5053813;28;20497;-78
2024/02/10 01:26:09;;;;;;;18.60;7.85;;;;;;;10.31;80.77;94141.88;5054113;28;20135;-78
2024/02/10 01:28:37;;;;;;;16.67;7.95;;;;;;;10.33;81.23;94144.25;5053947;28;20045;-78
2024/02/10 01:31:07;;;;;;;10.00;7.28;;;;;;;10.33;81.76;94139.06;5053967;28;20139;-78
2024/02/10 01:33:36;;;;;;;17.70;8.23;;;;;;;10.30;81.24;94122.88;5054737;28;20056;-78
2024/02/10 01:36:04;;;;;;;15.27;7.47;;;;;;;10.28;80.31;94119.69;5053760;28;20488;-78
2024/02/10 01:38:37;;;;;;;13.88;7.90;;;;;;;10.26;79.79;94111.31;5053255;28;20091;-78
2024/02/10 01:41:04;;;;;;;14.73;6.43;;;;;;;10.26;79.41;94110.53;5059449;28;20072;-78
2024/02/10 01:43:38;;;;;;;13.32;7.57;;;;;;;10.26;79.40;94111.31;5067931;28;20092;-77
2024/02/10 01:46:06;;;;;;;14.35;6.43;;;;;;;10.24;79.27;94118.59;5069043;28;20053;-77
2024/02/10 01:48:35;;;;;;;11.20;6.68;;;;;;;10.23;79.32;94114.41;5065023;28;20051;-78
2024/02/10 01:51:03;;;;;;;16.27;7.28;;;;;;;10.23;79.42;94105.78;5055069;28;20079;-78
2024/02/10 01:53:33;;;;;;;10.00;6.65;;;;;;;10.24;80.08;94102.94;5054629;28;20049;-78
2024/02/10 01:56:02;;;;;;;11.95;6.60;;;;;;;10.27;81.00;94107.66;5054021;28;20045;-77
2024/02/10 01:58:32;;;;;;;25.27;9.40;;;;;;;10.31;80.69;94108.78;5053932;28;20140;-77
2024/02/10 02:01:00;;;;;;;16.30;8.23;;;;;;;10.33;80.15;94105.19;5054054;28;20059;-77
2024/02/10 02:03:28;;;;;;;21.33;9.02;;;;;;;10.32;79.91;94104.41;5054808;28;20455;-78
2024/02/10 02:05:57;;;;;;;13.18;8.10;;;;;;;10.33;81.13;94107.78;5054051;28;20432;-78
2024/02/10 02:08:25;;;;;;;11.73;7.30;;;;;;;10.30;80.73;94107.22;5053722;28;20049;-78
2024/02/10 02:10:53;;;;;;;16.15;8.27;;;;;;;10.30;80.87;94109.84;5053417;28;20103;-77
2024/02/10 02:13:22;;;;;;;11.27;7.40;;;;;;;10.34;82.43;94111.94;5057293;28;20053;-78
2024/02/10 02:15:57;;;;;;;13.70;7.22;;;;;;;10.40;83.43;94118.81;5069303;28;20075;-78
2024/02/10 02:18:25;;;;;;;14.70;7.50;;;;;;;10.43;83.61;94115.72;5070142;28;20053;-78
2024/02/10 02:20:52;;;;;;;13.57;7.05;;;;;;;10.40;82.18;94105.78;5067990;28;20107;-77
2024/02/10 02:23:21;;;;;;;12.05;7.53;;;;;;;10.40;82.97;94111.00;5054926;28;20520;-77
2024/02/10 02:25:49;;;;;;;11.23;7.47;;;;;;;10.35;82.72;94103.91;5054387;28;20049;-77
2024/02/10 02:28:17;;;;;;;11.52;7.78;;;;;;;10.31;82.65;94108.78;5055258;28;20080;-78
2024/02/10 02:30:45;;;;;;;10.85;6.82;;;;;;;10.31;84.22;94106.19;5054294;28;20048;-78
2024/02/10 02:33:12;;;;;;;11.27;7.28;;;;;;;10.31;83.52;94102.81;5054423;28;20051;-77
2024/02/10 02:35:43;;;;;;;15.18;8.95;;;;;;;10.27;82.33;94112.09;5053867;28;20049;-78
2024/02/10 02:38:13;;;;;;;9.50;7.40;;;;;;;10.24;83.35;94108.16;5053841;28;20049;-78
2024/02/10 02:40:42;;;;;;;12.52;8.23;;;;;;;10.27;84.01;94112.09;5053990;28;20049;-78
2024/02/10 02:43:12;;;;;;;12.27;8.80;;;;;;;10.26;82.95;94116.53;5054604;28;20068;-78
2024/02/10 02:45:42;;;;;;;11.98;8.07;;;;;;;10.26;82.78;94111.31;5053649;28;20083;-78
2024/02/10 02:48:10;;;;;;;11.68;8.73;;;;;;;10.23;82.00;94106.59;5054219;28;20536;-78
2024/02/10 02:50:40;;;;;;;14.32;9.05;;;;;;;10.20;82.15;94101.84;5054183;28;20037;-78
2024/02/10 02:53:08;;;;;;;14.35;8.70;;;;;;;10.20;82.99;94101.06;5053865;28;20128;-78
2024/02/10 02:55:35;;;;;;;13.57;9.48;;;;;;;10.18;82.28;94090.88;5053730;28;20584;-78
2024/02/10 02:58:09;;;;;;;13.02;9.05;;;;;;;10.13;81.44;94090.81;5054782;28;20488;-78
2024/02/10 03:00:38;;;;;;;15.05;9.77;;;;;;;10.08;81.13;94094.16;5054605;28;20119;-78
2024/02/10 03:03:06;;;;;;;19.00;9.00;;;;;;;10.03;81.35;94103.69;5052893;28;20053;-77
2024/02/10 03:05:34;;;;;;;13.65;9.38;;;;;;;10.02;81.61;94094.31;5052086;28;20068;-78
2024/02/10 03:08:02;;;;;;;14.20;9.10;;;;;;;9.99;82.24;94098.19;5052317;28;20049;-78
2024/02/10 03:10:30;;;;;;;14.35;9.57;;;;;;;9.98;83.04;94098.41;5051784;28;20045;-78
2024/02/10 03:12:58;;;;;;;14.88;9.98;;;;;;;9.97;82.51;94096.81;5052310;28;20059;-78
2024/02/10 03:15:27;;;;;;;19.42;9.13;;;;;;;9.93;81.76;94095.72;5051944;28;20136;-77
2024/02/10 03:17:55;;;;;;;13.05;8.98;;;;;;;9.88;81.33;94084.25;5052234;28;20045;-77
2024/02/10 03:20:28;;;;;;;13.27;9.10;;;;;;;9.84;81.07;94080.53;5052289;28;20052;-77
2024/02/10 03:23:01;;;;;;;13.73;9.63;;;;;;;9.78;80.84;94081.47;5052285;28;20060;-78
2024/02/10 03:25:30;;;;;;;12.73;8.65;;;;;;;9.75;82.59;94087.16;5051859;28;20057;-78
2024/02/10 03:27:59;;;;;;;11.10;9.35;;;;;;;9.80;84.25;94089.84;5051877;28;20064;-78
2024/02/10 03:30:28;;;;;;;13.38;7.82;;;;;;;9.75;81.74;94089.78;5051983;28;20492;-78
2024/02/10 03:32:55;;;;;;;13.77;8.55;;;;;;;9.65;80.93;94087.00;5052002;28;20099;-78
2024/02/10 03:35:26;;;;;;;15.27;8.07;;;;;;;9.54;80.70;94091.28;5063018;28;20037;-77
2024/02/10 03:37:54;;;;;;;13.70;8.45;;;;;;;9.45;80.74;94080.47;5074126;28;20055;-78
2024/02/10 03:40:22;;;;;;;10.23;8.40;;;;;;;9.39;81.04;94083.22;5072128;28;20045;-78
2024/02/10 03:42:50;;;;;;;13.80;7.90;;;;;;;9.33;80.95;94077.13;5068827;28;20052;-77
2024/02/10 03:45:19;;;;;;;13.68;8.30;;;;;;;9.30;80.76;94075.00;5055436;28;20053;-78
2024/02/10 03:47:50;;;;;;;11.48;8.50;;;;;;;9.23;80.32;94075.16;5054088;28;20080;-78
2024/02/10 03:50:18;;;;;;;12.15;7.68;;;;;;;9.19;80.52;94066.25;5052017;28;20048;-78
2024/02/10 03:52:46;;;;;;;14.55;8.23;;;;;;;9.16;80.26;94065.91;5051607;28;20485;-78
2024/02/10 03:55:14;;;;;;;13.38;8.65;;;;;;;9.10;80.20;94059.88;5051954;28;20053;-77
2024/02/10 03:57:42;;;;;;;12.73;8.70;;;;;;;9.05;80.31;94050.16;5052136;28;20049;-78
2024/02/10 04:00:20;;;;;;;11.43;8.85;;;;;;;9.01;80.35;94049.06;5051871;28;20131;-77
2024/02/10 04:02:49;;;;;;;17.92;8.30;;;;;;;9.02;80.42;94050.63;5053323;28;20052;-78
2024/02/10 04:05:16;;;;;;;14.75;9.13;;;;;;;9.01;80.51;94041.25;5052423;28;20049;-77
2024/02/10 04:07:49;;;;;;;13.57;8.00;;;;;;;9.00;79.94;94042.25;5053148;28;20496;-78
2024/02/10 04:10:17;;;;;;;15.05;8.43;;;;;;;8.95;79.64;94039.59;5055101;28;20041;-77
2024/02/10 04:12:46;;;;;;;11.35;8.10;;;;;;;8.88;79.37;94033.75;5055275;28;20053;-77
2024/02/10 04:15:14;;;;;;;11.93;8.32;;;;;;;8.80;79.06;94036.72;5055163;28;20063;-78
2024/02/10 04:17:42;;;;;;;15.02;8.15;;;;;;;8.71;79.16;94038.13;5055267;28;20144;-77
2024/02/10 04:20:12;;;;;;;14.98;9.07;;;;;;;8.62;79.51;94025.50;5055062;28;20060;-78
2024/02/10 04:22:42;;;;;;;13.88;8.30;;;;;;;8.56;79.78;94020.44;5066522;28;20043;-78
2024/02/10 04:25:10;;;;;;;13.60;9.20;;;;;;;8.54;79.98;94028.47;5076585;28;20061;-78
2024/02/10 04:27:37;;;;;;;11.75;7.88;;;;;;;8.52;80.35;94025.31;5076471;28;20071;-77
2024/02/10 04:30:06;;;;;;;13.23;9.68;;;;;;;8.52;80.35;94024.53;5060758;28;20049;-78
2024/02/10 04:32:42;;;;;;;22.60;8.85;;;;;;;8.53;80.77;94032.09;5056147;28;20056;-77
2024/02/10 04:35:11;;;;;;;21.73;11.50;;;;;;;8.50;81.16;94014.34;5056949;28;20049;-76
2024/02/10 04:37:38;;;;;;;16.42;10.00;;;;;;;8.49;81.27;94022.41;5056344;28;20045;-78
2024/02/10 04:40:07;;;;;;;15.32;9.13;;;;;;;8.47;80.72;94020.03;5055087;28;20045;-78
2024/02/10 04:42:35;;;;;;;14.68;8.75;;;;;;;8.45;80.55;94015.03;5054910;28;20080;-78
2024/02/10 04:45:03;;;;;;;17.20;8.98;;;;;;;8.45;81.06;94027.25;5054942;28;20045;-78
2024/02/10 04:47:34;;;;;;;17.05;9.93;;;;;;;8.45;80.94;94024.66;5055133;28;20053;-77
2024/02/10 04:50:02;;;;;;;14.52;9.48;;;;;;;8.48;81.19;94028.59;5054682;28;20103;-77
2024/02/10 04:52:33;;;;;;;19.80;12.00;;;;;;;8.48;81.71;94028.59;5054925;28;20041;-78
2024/02/10 04:55:01;;;;;;;18.63;11.82;;;;;;;8.48;81.91;94026.78;5054867;28;20475;-77
2024/02/10 04:57:30;;;;;;;20.42;11.20;;;;;;;8.50;81.97;94031.75;5055092;28;20072;-78
2024/02/10 05:00:00;;;;;;;17.65;10.40;;;;;;;8.52;81.87;94025.31;5054695;28;20099;-78
2024/02/10 05:02:28;;;;;;;18.23;9.52;;;;;;;8.56;81.84;94020.44;5054653;28;20060;-78
2024/02/10 05:04:56;;;;;;;19.80;10.23;;;;;;;8.58;81.68;94019.19;5054526;28;20625;-78
2024/02/10 05:07:24;;;;;;;15.45;9.50;;;;;;;8.61;81.52;94026.50;5054318;28;20140;-78
2024/02/10 05:09:54;;;;;;;13.10;8.77;;;;;;;8.64;82.53;94023.47;5053913;28;20504;-78
2024/02/10 05:12:22;;;;;;;18.85;9.90;;;;;;;8.68;81.94;94022.97;5054433;28;20049;-78
2024/02/10 05:14:50;;;;;;;17.15;9.50;;;;;;;8.69;81.60;94024.56;5054175;28;20488;-78
2024/02/10 05:17:19;;;;;;;17.13;9.77;;;;;;;8.68;81.31;94020.38;5054329;28;20047;-78
2024/02/10 05:19:48;;;;;;;22.58;10.88;;;;;;;8.68;81.06;94022.97;5053505;28;20049;-78
2024/02/10 05:22:17;;;;;;;19.30;10.00;;;;;;;8.64;80.96;94022.66;5053891;28;20041;-78
2024/02/10 05:24:47;;;;;;;17.38;9.85;;;;;;;8.61;81.02;94023.91;5053553;28;20053;-78
2024/02/10 05:27:16;;;;;;;15.60;9.07;;;;;;;8.57;80.87;94028.00;5054098;28;20496;-78
2024/02/10 05:29:43;;;;;;;14.50;9.77;;;;;;;8.55;80.86;94030.06;5054009;28;20049;-79
2024/02/10 05:32:11;;;;;;;16.02;9.07;;;;;;;8.54;81.11;94014.69;5053872;28;20073;-78
2024/02/10 05:34:41;;;;;;;17.83;9.50;;;;;;;8.51;81.32;94018.53;5053723;28;20143;-78
2024/02/10 05:37:09;;;;;;;16.00;9.65;;;;;;;8.52;81.66;94014.91;5053465;28;20481;-78
2024/02/10 05:39:36;;;;;;;15.38;9.95;;;;;;;8.52;81.84;94009.72;5053189;28;20508;-78
2024/02/10 05:42:04;;;;;;;15.27;9.82;;;;;;;8.54;82.06;94012.09;5053894;28;20048;-78
2024/02/10 05:44:33;;;;;;;17.23;10.70;;;;;;;8.55;82.17;94009.25;5053512;28;20214;-77
2024/02/10 05:47:02;;;;;;;15.35;10.23;;;;;;;8.57;82.20;94006.41;5053464;28;20148;-78
2024/02/10 05:49:30;;;;;;;17.80;11.27;;;;;;;8.60;82.29;93996.34;5051499;28;20136;-78
2024/02/10 05:51:59;;;;;;;20.15;11.05;;;;;;;8.62;82.09;94002.09;5051654;28;20045;-78
2024/02/10 05:54:33;;;;;;;16.92;11.05;;;;;;;8.62;82.07;94002.09;5051175;28;20304;-78
2024/02/10 05:57:02;;;;;;;18.92;10.18;;;;;;;8.63;82.17;93993.28;5052187;28;20464;-78
2024/02/10 05:59:29;;;;;;;20.15;10.48;;;;;;;8.67;82.42;94004.00;5053353;28;20048;-78
2024/02/10 06:01:58;;;;;;;22.83;11.93;;;;;;;8.73;82.97;94015.28;5053004;28;20152;-77
2024/02/10 06:04:27;;;;;;;14.35;9.73;;;;;;;8.79;83.73;94014.34;5051618;28;20488;-78
2024/02/10 06:06:57;;;;;;;17.40;10.25;;;;;;;8.87;83.62;94021.75;5051129;28;20135;-78
2024/02/10 06:09:25;;;;;;;17.73;11.40;;;;;;;8.91;83.13;94016.88;5051645;28;20049;-78
2024/02/10 06:11:52;;;;;;;15.77;9.38;;;;;;;8.92;82.48;94014.06;5050686;28;20576;-78
2024/02/10 06:14:20;;;;;;;18.40;11.13;;;;;;;8.91;81.86;94016.88;5051302;28;20055;-78
2024/02/10 06:16:48;;;;;;;18.27;10.32;;;;;;;8.89;81.69;94024.13;5050822;28;20063;-77
2024/02/10 06:19:17;;;;;;;17.52;10.38;;;;;;;8.85;81.76;94024.63;5053736;28;20084;-78
2024/02/10 06:21:45;;;;;;;17.08;9.52;;;;;;;8.83;81.64;94020.66;5057135;28;20079;-79
2024/02/10 06:24:13;;;;;;;21.08;10.63;;;;;;;8.80;81.68;94016.72;5052453;28;20099;-78
2024/02/10 06:26:40;;;;;;;16.15;10.00;;;;;;;8.80;81.81;94021.13;5052855;28;20049;-79
2024/02/10 06:29:08;;;;;;;15.18;10.10;;;;;;;8.79;81.68;94019.53;5052837;28;20140;-78
2024/02/10 06:31:35;;;;;;;16.10;10.20;;;;;;;8.82;82.11;94024.28;5052516;28;20095;-78
2024/02/10 06:34:03;;;;;;;18.40;11.05;;;;;;;8.86;82.77;94028.78;5054302;28;20060;-77
2024/02/10 06:36:33;;;;;;;17.10;10.63;;;;;;;8.92;82.88;94032.25;5053070;28;20455;-79
2024/02/10 06:39:00;;;;;;;16.25;10.90;;;;;;;8.95;82.73;94034.38;5053011;28;20127;-78
2024/02/10 06:41:28;;;;;;;15.02;10.20;;;;;;;8.95;82.27;94028.41;5068927;28;20056;-78
2024/02/10 06:43:56;;;;;;;16.65;10.50;;;;;;;8.92;81.88;94024.47;5071281;28;20167;-79
2024/02/10 06:46:23;;;;;;;16.15;10.90;;;;;;;8.90;81.71;94017.91;5071225;28;20059;-77
2024/02/10 06:48:52;;;;;;;15.80;10.75;;;;;;;8.87;81.82;94032.16;5060537;28;20140;-78
2024/02/10 06:51:21;;;;;;;16.90;10.07;;;;;;;8.85;81.64;94027.22;5053822;28;20045;-78
2024/02/10 06:53:51;;;;;;;19.15;10.75;;;;;;;8.84;81.58;94032.63;5052002;28;20108;-78
2024/02/10 06:56:21;;;;;;;18.05;10.90;;;;;;;8.84;81.82;94033.41;5053143;28;20102;-78
2024/02/10 06:58:50;;;;;;;17.17;10.65;;;;;;;8.84;81.65;94033.41;5053317;28;20045;-78
2024/02/10 07:01:18;;;;;;;18.40;10.68;;;;;;;8.84;81.63;94035.22;5052543;28;20049;-78
2024/02/10 07:03:46;;;;;;;18.25;10.57;;;;;;;8.83;81.84;94042.25;5059907;28;20048;-78
2024/02/10 07:06:17;;;;;;;21.02;11.00;;;;;;;8.83;81.83;94039.66;5067052;28;20053;-78
2024/02/10 07:08:45;;;;;;;25.23;12.00;;;;;;;8.83;81.83;94036.25;5067551;28;20526;-78
2024/02/10 07:11:14;;;;;;;16.50;10.57;;;;;;;8.82;81.92;94039.88;5066038;28;20076;-79
2024/02/10 07:13:42;;;;;;;19.10;10.73;;;;;;;8.81;81.96;94038.28;5058614;28;20055;-78
2024/02/10 07:16:10;;;;;;;17.63;11.68;;;;;;;8.83;82.38;94042.25;5053400;28;20053;-77
2024/02/10 07:18:38;;;;;;;16.58;10.88;;;;;;;8.85;82.44;94039.41;5053110;28;20132;-79
2024/02/10 07:21:06;;;;;;;18.30;10.60;;;;;;;8.85;81.80;94045.41;5052249;28;20057;-78
2024/02/10 07:23:34;;;;;;;17.55;10.18;;;;;;;8.85;81.95;94039.41;5051767;28;20524;-79
2024/02/10 07:26:04;;;;;;;18.45;10.38;;;;;;;8.84;82.14;94040.44;5052124;28;20053;-78
2024/02/10 07:28:34;;;;;;;17.88;10.65;;;;;;;8.85;82.01;94044.59;5052162;28;20526;-78
2024/02/10 07:31:02;;;;;;;14.32;10.60;;;;;;;8.85;82.16;94040.22;5053193;28;20103;-78
2024/02/10 07:33:31;;;;;;;17.98;11.27;;;;;;;8.86;82.20;94041.78;5052170;28;20049;-79
2024/02/10 07:36:00;;;;;;;20.92;11.88;;;;;;;8.88;82.12;94036.34;5052851;28;20072;-78
2024/02/10 07:38:28;;;;;;;16.35;11.13;;;;;;;8.90;82.07;94036.09;5051812;28;20061;-78
2024/02/10 07:40:55;;;;;;;23.27;11.18;;;;;;;8.91;82.22;94032.50;5052577;28;20416;-79
2024/02/10 07:43:23;;;;;;;24.17;12.52;;;;;;;8.93;82.10;94036.44;5056214;28;20057;-78
2024/02/10 07:45:52;;;;;;;27.38;13.32;;;;;;;8.95;81.96;94034.38;5055827;28;20049;-78
2024/02/10 07:48:21;;;;;;;28.50;13.27;;;;;;;8.97;81.91;94026.34;5056038;28;20048;-78
2024/02/10 07:50:49;;;;;;;21.00;12.15;;;;;;;9.00;82.12;94021.47;5055819;28;20052;-78
2024/02/10 07:53:17;;;;;;;22.60;11.57;;;;;;;9.05;82.00;94029.38;5055381;28;20049;-79
2024/02/10 07:55:46;;;;;;;18.67;10.55;;;;;;;9.08;81.86;94020.28;5055830;28;20048;-78
2024/02/10 07:58:15;;;;;;;24.63;12.50;;;;;;;9.10;81.82;94020.84;5055582;28;20118;-78
2024/02/10 08:00:44;;;;;;;27.77;12.73;;;;;;;9.14;81.81;94016.75;5055217;28;20108;-78
2024/02/10 08:03:13;;;;;;;17.70;11.40;;;;;;;9.17;81.60;94020.69;5055778;28;20075;-77
2024/02/10 08:05:42;;;;;;;21.95;12.98;;;;;;;9.20;81.20;94020.22;5055530;28;20049;-78
2024/02/10 08:08:10;;;;;;;19.70;12.25;;;;;;;9.20;81.26;94020.22;5055006;28;20071;-79
2024/02/10 08:10:37;;;;;;;22.17;13.20;;;;;;;9.22;81.03;94013.75;5055013;28;20044;-79
2024/02/10 08:13:05;;;;;;;16.00;11.40;;;;;;;9.24;81.20;94014.31;5054997;28;20045;-78
2024/02/10 08:15:33;;;;;;;20.58;11.05;;;;;;;9.28;81.28;94022.44;5052069;28;20127;-79
2024/02/10 08:18:05;;;;;;;17.75;11.52;;;;;;;9.31;81.29;94019.34;5055975;28;20080;-79
2024/02/10 08:20:34;;;;;;;24.70;12.13;;;;;;;9.36;80.87;94026.44;5055199;28;20053;-78
2024/02/10 08:23:02;;;;;;;22.63;11.00;;;;;;;9.38;81.00;94014.78;5054948;28;20405;-79
2024/02/10 08:25:30;;;;;;;17.30;11.05;;;;;;;9.39;81.01;94011.16;5053944;28;20465;-80
2024/02/10 08:27:59;;;;;;;17.27;11.50;;;;;;;9.41;80.84;94014.31;5062865;28;20048;-80
2024/02/10 08:30:27;;;;;;;25.88;12.88;;;;;;;9.42;80.59;94015.91;5057639;28;20048;-80
2024/02/10 08:32:57;;;;;;;19.98;12.98;;;;;;;9.43;80.61;94020.06;5073900;28;20045;-80
2024/02/10 08:35:27;;;;;;;19.92;13.15;;;;;;;9.46;80.89;94029.97;5073285;28;20112;-81
2024/02/10 08:37:57;;;;;;;20.23;13.43;;;;;;;9.50;81.61;94027.69;5075793;28;20037;-80
2024/02/10 08:40:25;;;;;;;17.63;10.50;;;;;;;9.54;81.25;94017.63;5048217;28;20050;-80
2024/02/10 08:42:54;;;;;;;14.63;10.55;;;;;;;9.58;81.06;94016.13;5063858;28;20056;-80
2024/02/10 08:45:21;;;;;;;16.20;11.25;;;;;;;9.60;80.96;94019.25;5063518;28;20055;-80
2024/02/10 08:47:49;;;;;;;19.50;11.85;;;;;;;9.62;81.09;94018.00;5056886;28;20056;-78
2024/02/10 08:50:18;;;;;;;16.27;11.13;;;;;;;9.64;81.18;94015.13;5056176;28;20115;-80
2024/02/10 08:52:48;;;;;;;18.67;10.80;;;;;;;9.67;80.91;94015.47;5054446;28;20083;-80
2024/02/10 08:55:17;;;;;;;15.73;10.43;;;;;;;9.69;80.63;94012.63;5055191;28;20057;-80
2024/02/10 08:57:46;;;;;;;16.23;11.15;;;;;;;9.71;80.26;94005.38;5054621;28;20052;-78
2024/02/10 09:00:15;;;;;;;19.75;12.52;;;;;;;9.69;80.36;93997.78;5054539;28;20051;-79
2024/02/10 09:02:45;;;;;;;19.80;11.98;;;;;;;9.74;80.34;93991.88;5053718;28;20565;-80
2024/02/10 09:05:13;;;;;;;17.88;11.32;;;;;;;9.75;80.19;93996.06;5054403;28;20140;-79
2024/02/10 09:07:41;;;;;;;21.10;12.05;;;;;;;9.75;80.06;94001.25;5054415;28;20099;-79
2024/02/10 09:10:09;;;;;;;20.52;12.55;;;;;;;9.77;80.10;93999.19;5053485;28;20053;-80
2024/02/10 09:12:39;;;;;;;19.30;11.25;;;;;;;9.78;79.96;93995.56;5054977;28;20505;-78
2024/02/10 09:15:07;;;;;;;21.38;11.38;;;;;;;9.81;79.99;93995.06;5054435;28;20095;-77
2024/02/10 09:17:34;;;;;;;16.95;11.15;;;;;;;9.85;80.09;93996.16;5053367;28;20124;-78
2024/02/10 09:20:08;;;;;;;18.38;11.68;;;;;;;9.92;80.05;94000.41;5054127;28;20041;-77
2024/02/10 09:22:36;;;;;;;19.65;11.63;;;;;;;9.98;79.87;93999.47;5054204;28;20045;-78
2024/02/10 09:25:04;;;;;;;20.73;10.93;;;;;;;10.03;79.78;93997.69;5055238;28;20057;-78
2024/02/10 09:27:31;;;;;;;16.65;11.65;;;;;;;10.07;79.38;93998.00;5035917;28;20509;-78
2024/02/10 09:30:01;;;;;;;17.52;11.13;;;;;;;10.10;79.52;93992.31;5035973;28;20139;-79
2024/02/10 09:32:28;;;;;;;22.60;11.63;;;;;;;10.15;79.38;93995.00;5053529;28;20056;-78
2024/02/10 09:34:57;;;;;;;22.05;11.25;;;;;;;10.20;79.26;93987.22;5054349;28;20071;-78
2024/02/10 09:37:25;;;;;;;19.83;11.40;;;;;;;10.23;78.86;93988.53;5054880;28;20084;-79
2024/02/10 09:39:53;;;;;;;21.83;11.77;;;;;;;10.27;78.71;93995.63;5054060;28;20045;-80
2024/02/10 09:42:22;;;;;;;17.42;11.38;;;;;;;10.31;79.39;93999.34;5053940;28;20076;-78
2024/02/10 09:44:50;;;;;;;18.30;11.35;;;;;;;10.35;78.92;93994.47;5053391;28;20079;-78
2024/02/10 09:47:19;;;;;;;19.55;11.80;;;;;;;10.37;78.37;93994.22;5054161;28;20057;-78
2024/02/10 09:49:49;;;;;;;18.33;9.93;;;;;;;10.41;78.51;93992.72;5053820;28;20055;-79
2024/02/10 09:52:19;;;;;;;17.42;10.27;;;;;;;10.45;77.76;93991.16;5053734;28;20049;-80
2024/02/10 09:54:46;;;;;;;16.40;11.10;;;;;;;10.46;77.40;93990.94;5053407;28;20037;-79
2024/02/10 09:57:14;;;;;;;19.77;12.00;;;;;;;10.48;77.15;93990.69;5053712;28;20423;-78
2024/02/10 09:59:42;;;;;;;18.90;11.25;;;;;;;10.49;76.81;93992.25;5053899;28;20072;-79
2024/02/10 10:02:12;;;;;;;16.92;11.93;;;;;;;10.50;76.83;93992.00;5053580;28;20428;-80
2024/02/10 10:04:41;;;;;;;24.30;11.80;;;;;;;10.52;76.63;94002.19;5052275;28;20087;-79
2024/02/10 10:07:09;;;;;;;16.45;10.57;;;;;;;10.54;76.45;93997.53;5053377;28;20158;-79
2024/02/10 10:09:38;;;;;;;22.17;11.93;;;;;;;10.54;76.43;93997.53;5052748;28;20132;-79
2024/02/10 10:12:09;;;;;;;22.00;11.68;;;;;;;10.54;76.61;93994.94;5053273;28;20459;-79
2024/02/10 10:14:39;;;;;;;19.70;12.07;;;;;;;10.49;76.41;93993.06;5053823;28;20049;-80
2024/02/10 10:17:13;;;;;;;19.92;12.05;;;;;;;10.48;76.19;93993.28;5054256;28;20053;-79
2024/02/10 10:19:43;;;;;;;18.42;11.73;;;;;;;10.47;76.00;93989.09;5054428;28;20049;-79
2024/02/10 10:22:10;;;;;;;19.20;11.10;;;;;;;10.46;76.25;93990.16;5053280;28;20045;-80
2024/02/10 10:24:38;;;;;;;25.48;13.05;;;;;;;10.46;76.20;93985.72;5053891;28;20091;-80
2024/02/10 10:27:06;;;;;;;21.40;12.38;;;;;;;10.47;76.37;93986.50;5054454;28;20080;-79
2024/02/10 10:29:35;;;;;;;20.08;12.57;;;;;;;10.45;76.32;93984.16;5054090;28;20548;-79
2024/02/10 10:32:03;;;;;;;21.38;12.15;;;;;;;10.48;76.09;93980.25;5054293;28;20049;-79
2024/02/10 10:34:33;;;;;;;22.45;12.48;;;;;;;10.47;75.55;93978.69;5053120;28;20061;-80
2024/02/10 10:37:03;;;;;;;18.65;11.15;;;;;;;10.47;75.82;93976.06;5053811;28;20095;-79
2024/02/10 10:39:37;;;;;;;24.35;11.75;;;;;;;10.48;75.82;93973.22;5053947;28;20467;-80
2024/02/10 10:42:08;;;;;;;21.25;12.18;;;;;;;10.50;76.39;93965.16;5053729;28;20076;-77
2024/02/10 10:44:36;;;;;;;21.63;12.20;;;;;;;10.52;76.96;93958.69;5057297;28;20047;-80
2024/02/10 10:47:05;;;;;;;17.13;11.32;;;;;;;10.57;76.75;93964.97;5068181;28;20028;-80
2024/02/10 10:49:33;;;;;;;23.77;12.50;;;;;;;10.57;76.35;93957.94;5066171;28;20045;-80
2024/02/10 10:52:05;;;;;;;22.48;12.23;;;;;;;10.57;76.81;93960.53;5067689;28;20079;-80
2024/02/10 10:54:36;;;;;;;22.75;11.57;;;;;;;10.52;76.77;93952.69;5060315;28;20049;-80
2024/02/10 10:57:07;;;;;;;19.15;11.63;;;;;;;10.51;76.71;93941.44;5057678;28;20060;-81
2024/02/10 10:59:37;;;;;;;17.92;12.38;;;;;;;10.49;77.22;93942.72;5057748;28;20056;-80
2024/02/10 11:02:12;;;;;;;20.88;12.13;;;;;;;10.47;77.01;93939.59;5055048;28;20098;-80
2024/02/10 11:04:47;;;;;;;19.70;12.70;;;;;;;10.45;77.22;93931.22;5054788;28;20048;-80
2024/02/10 11:07:17;;;;;;;22.20;12.77;;;;;;;10.44;77.50;93924.44;5054142;28;20493;-80
2024/02/10 11:09:46;;;;;;;17.95;12.65;;;;;;;10.43;77.76;93922.84;5056467;28;20132;-79
2024/02/10 11:12:15;;;;;;;27.50;13.20;;;;;;;10.45;78.87;93912.97;5053940;28;20041;-80
2024/02/10 11:14:51;;;;;;;19.90;14.20;;;;;;;10.50;78.48;93905.22;5053139;28;20572;-80
2024/02/10 11:17:19;;;;;;;18.50;13.60;;;;;;;10.53;79.83;93891.69;5058966;28;20091;-80
2024/02/10 11:20:00;;;;;;;18.60;13.70;;;;;;;10.58;81.39;93883.91;5057599;28;20132;-80
2024/02/10 11:22:36;;;;;;;19.88;13.30;;;;;;;10.63;82.22;93881.34;5062864;28;20071;-80
2024/02/10 11:25:07;;;;;;;20.10;13.43;;;;;;;10.64;79.46;93876.91;5058157;28;20045;-78
2024/02/10 11:27:35;;;;;;;20.63;12.30;;;;;;;10.63;78.45;93880.56;5056660;28;20455;-79
2024/02/10 11:30:03;;;;;;;21.13;12.80;;;;;;;10.64;78.71;93875.09;5057113;28;20045;-79
2024/02/10 11:32:31;;;;;;;16.48;13.38;;;;;;;10.70;80.08;93865.50;5056057;28;20047;-79
2024/02/10 11:34:59;;;;;;;23.85;14.43;;;;;;;10.76;80.52;93861.09;5056128;28;20122;-77